Time;durP1;ratioP1;P1;durP2;ratioP2;P2;SDS_P1;SDS_P2;PMS_P1;PMS_P2;Temp;Humidity;BMP_temperature;BMP_pressure;BME280_temperature;BME280_humidity;BME280_pressure;Samples;Min_cycle;Max_cycle;Signal;HPM_P1;HPM_P2
2022/05/01 00:01:08;;;;;;;4.57;4.18;;;;;;;14.30;91.68;98689.03;6271304;22;20149;-57
2022/05/01 00:03:35;;;;;;;11.02;3.83;;;;;;;14.37;89.44;98689.38;6269241;22;20184;-57
2022/05/01 00:06:08;;;;;;;4.28;3.30;;;;;;;13.97;89.71;98685.59;6270715;22;20168;-57
2022/05/01 00:08:36;;;;;;;4.85;3.97;;;;;;;13.79;92.00;98681.84;6262650;22;20238;-57
2022/05/01 00:11:02;;;;;;;4.22;3.50;;;;;;;13.80;92.04;98688.69;6258090;22;20155;-57
2022/05/01 00:13:29;;;;;;;3.92;3.40;;;;;;;13.80;91.45;98691.28;6261024;22;20153;-57
2022/05/01 00:15:54;;;;;;;3.40;3.10;;;;;;;13.88;90.14;98704.56;6270570;22;20263;-57
2022/05/01 00:18:20;;;;;;;3.85;3.55;;;;;;;13.91;90.82;98704.28;6270415;22;20159;-57
2022/05/01 00:20:46;;;;;;;3.33;3.08;;;;;;;13.87;92.11;98708.06;6270824;22;20152;-57
2022/05/01 00:23:13;;;;;;;3.35;3.05;;;;;;;13.79;92.18;98707.84;6271116;22;20152;-57
2022/05/01 00:25:41;;;;;;;3.15;2.95;;;;;;;13.67;93.44;98700.97;6271183;22;20148;-57
2022/05/01 00:28:08;;;;;;;9.68;6.35;;;;;;;13.54;94.90;98703.69;6268956;22;20163;-56
2022/05/01 00:30:35;;;;;;;4.07;3.75;;;;;;;13.41;96.30;98702.16;6255787;22;20149;-57
2022/05/01 00:38:28;;;;;;;4.00;3.70;;;;;;;13.23;98.13;98708.69;6270367;22;20139;-57
2022/05/01 00:40:54;;;;;;;3.80;3.33;;;;;;;13.17;98.92;98703.94;6270588;22;20630;-57
2022/05/01 00:43:19;;;;;;;4.03;3.72;;;;;;;13.11;99.86;98709.59;6270825;22;20232;-57
2022/05/01 00:45:45;;;;;;;4.35;3.50;;;;;;;12.95;100.00;98716.84;6268965;22;20166;-57
2022/05/01 00:48:10;;;;;;;6.07;3.72;;;;;;;12.96;100.00;98721.13;6270488;22;20278;-57
2022/05/01 00:50:36;;;;;;;3.75;3.20;;;;;;;12.84;100.00;98717.63;6263420;22;20326;-57
2022/05/01 00:53:05;;;;;;;3.80;3.50;;;;;;;12.92;100.00;98709.28;6257948;22;20144;-57
2022/05/01 00:55:35;;;;;;;3.65;3.42;;;;;;;12.91;100.00;98711.06;6260031;22;20176;-56
2022/05/01 00:58:03;;;;;;;4.30;3.90;;;;;;;12.88;100.00;98711.25;6268765;22;20599;-56
2022/05/01 01:00:29;;;;;;;3.55;3.25;;;;;;;12.89;100.00;98712.09;6270592;22;20152;-57
2022/05/01 01:02:55;;;;;;;4.00;3.67;;;;;;;13.06;100.00;98702.16;6270497;22;20612;-56
2022/05/01 01:05:20;;;;;;;3.97;3.67;;;;;;;13.10;100.00;98703.59;6270600;22;20176;-57
2022/05/01 01:07:46;;;;;;;4.13;3.72;;;;;;;13.07;99.50;98703.81;6270193;22;20160;-57
2022/05/01 01:10:12;;;;;;;3.50;3.30;;;;;;;12.99;100.00;98700.13;6270475;22;20508;-57
2022/05/01 01:12:56;;;;;;;5.30;4.80;;;;;;;12.95;100.00;98699.50;6258103;22;20463;-57
2022/05/01 01:15:24;;;;;;;5.70;5.20;;;;;;;12.79;100.00;98692.94;6258301;22;20156;-57
2022/05/01 01:17:54;;;;;;;4.53;4.13;;;;;;;12.81;100.00;98696.22;6266170;22;20137;-57
2022/05/01 01:20:21;;;;;;;6.45;4.18;;;;;;;12.74;100.00;98695.03;6270209;22;20504;-57
2022/05/01 01:22:49;;;;;;;5.30;4.53;;;;;;;12.68;100.00;98679.91;6270329;22;20156;-57
2022/05/01 01:25:23;;;;;;;5.13;4.60;;;;;;;12.67;100.00;98667.88;6270585;22;20180;-57
2022/05/01 01:27:50;;;;;;;4.30;4.00;;;;;;;12.69;100.00;98666.81;6268945;22;20137;-57
2022/05/01 01:33:02;;;;;;;5.47;3.92;;;;;;;12.93;99.74;98696.19;6261334;22;20190;-57
2022/05/01 01:35:29;;;;;;;5.00;4.57;;;;;;;13.18;100.00;98708.22;6257148;22;20592;-57
2022/05/01 01:37:55;;;;;;;6.75;4.80;;;;;;;13.30;100.00;98704.72;6259214;22;20405;-57
2022/05/01 01:40:31;;;;;;;7.03;5.35;;;;;;;13.44;100.00;98717.50;6270459;22;20223;-57
2022/05/01 01:42:58;;;;;;;5.68;5.10;;;;;;;13.43;100.00;98703.69;6268429;22;20208;-57
2022/05/01 01:45:30;;;;;;;8.10;5.05;;;;;;;13.14;100.00;98699.00;6269588;22;20168;-57
2022/05/01 01:47:57;;;;;;;3.95;3.67;;;;;;;13.02;100.00;98695.50;6268148;22;20514;-57
2022/05/01 01:50:24;;;;;;;4.43;4.03;;;;;;;13.05;100.00;98689.28;6270370;22;20152;-57
2022/05/01 01:52:50;;;;;;;4.60;4.22;;;;;;;13.05;100.00;98697.06;6269176;22;20591;-57
2022/05/01 01:55:17;;;;;;;5.07;4.05;;;;;;;13.05;100.00;98697.91;6255134;22;20205;-57
2022/05/01 01:57:45;;;;;;;5.63;5.13;;;;;;;13.24;100.00;98693.00;6258067;22;20149;-57
2022/05/01 02:00:11;;;;;;;4.40;4.05;;;;;;;13.19;100.00;98691.69;6266481;22;20217;-57
2022/05/01 02:02:37;;;;;;;4.55;4.10;;;;;;;13.03;100.00;98685.97;6270123;22;20148;-57
2022/05/01 02:05:03;;;;;;;4.10;3.72;;;;;;;12.75;100.00;98681.09;6269805;22;20180;-57
2022/05/01 02:07:31;;;;;;;4.50;4.20;;;;;;;12.73;100.00;98678.63;6270168;22;20156;-57
2022/05/01 02:09:57;;;;;;;4.60;4.20;;;;;;;12.72;100.00;98689.13;6270188;22;20609;-57
2022/05/01 02:12:23;;;;;;;5.97;4.43;;;;;;;12.34;100.00;98678.06;6269542;22;20159;-57
2022/05/01 02:14:49;;;;;;;4.38;3.97;;;;;;;12.30;100.00;98674.88;6262304;22;20149;-57
2022/05/01 02:17:15;;;;;;;3.92;3.63;;;;;;;12.38;100.00;98675.13;6256489;22;20238;-57
2022/05/01 02:19:41;;;;;;;4.68;4.28;;;;;;;12.46;100.00;98669.41;6259710;22;20468;-57
2022/05/01 02:22:06;;;;;;;3.92;3.63;;;;;;;12.49;100.00;98680.38;6269599;22;20180;-57
2022/05/01 02:24:33;;;;;;;5.07;4.53;;;;;;;12.47;100.00;98681.44;6269647;22;20209;-57
2022/05/01 02:26:59;;;;;;;4.03;3.72;;;;;;;12.39;100.00;98678.56;6269466;22;20496;-57
2022/05/01 02:29:25;;;;;;;4.50;4.10;;;;;;;12.17;100.00;98673.25;6269623;22;20586;-57
2022/05/01 02:31:53;;;;;;;5.75;3.47;;;;;;;12.28;100.00;98671.56;6268935;22;20224;-56
2022/05/01 02:34:19;;;;;;;4.40;4.00;;;;;;;12.00;100.00;98669.25;6269130;22;20485;-57
2022/05/01 02:36:45;;;;;;;4.25;3.95;;;;;;;12.13;100.00;98671.81;6257402;22;20349;-57
2022/05/01 02:39:11;;;;;;;6.60;4.10;;;;;;;12.32;100.00;98674.75;6256900;22;20150;-57
2022/05/01 02:41:36;;;;;;;4.35;3.95;;;;;;;12.58;100.00;98681.50;6263490;22;20160;-57
2022/05/01 02:44:03;;;;;;;4.35;3.95;;;;;;;12.68;99.90;98679.91;6269201;22;20208;-57
2022/05/01 02:46:28;;;;;;;5.68;3.78;;;;;;;12.14;100.00;98676.06;6269326;22;20148;-57
2022/05/01 02:48:54;;;;;;;4.22;3.75;;;;;;;12.18;100.00;98680.09;6269518;22;20151;-57
2022/05/01 02:51:20;;;;;;;5.35;4.38;;;;;;;11.78;100.00;98678.66;6269409;22;20152;-56
2022/05/01 02:53:46;;;;;;;5.03;4.47;;;;;;;11.60;100.00;98678.13;6269833;22;20151;-57
2022/05/01 02:56:11;;;;;;;4.85;4.45;;;;;;;11.39;100.00;98666.59;6266232;22;20144;-56
2022/05/01 02:58:36;;;;;;;4.07;3.72;;;;;;;11.33;100.00;98671.38;6255269;22;20152;-56
2022/05/01 03:01:02;;;;;;;4.97;4.10;;;;;;;11.32;100.00;98661.94;6257728;22;20202;-56
2022/05/01 03:03:28;;;;;;;4.15;3.75;;;;;;;11.30;100.00;98680.19;6264862;22;20156;-56
2022/05/01 03:05:56;;;;;;;4.80;4.50;;;;;;;11.15;100.00;98676.00;6269541;22;20176;-56
2022/05/01 03:08:21;;;;;;;5.63;4.07;;;;;;;11.12;100.00;98681.41;6269382;22;20156;-56
2022/05/01 03:10:47;;;;;;;5.20;4.72;;;;;;;11.22;100.00;98684.22;6269146;22;20234;-57
2022/05/01 03:13:14;;;;;;;6.28;4.65;;;;;;;11.30;100.00;98681.91;6269376;22;20145;-57
2022/05/01 03:15:40;;;;;;;5.63;5.13;;;;;;;11.30;100.00;98681.91;6269083;22;20188;-56
2022/05/01 03:23:34;;;;;;;6.60;4.93;;;;;;;11.50;100.00;98691.78;6263239;22;20143;-56
2022/05/01 03:25:59;;;;;;;6.65;5.32;;;;;;;11.61;100.00;98700.50;6269616;22;20156;-57
2022/05/01 03:28:25;;;;;;;5.20;4.68;;;;;;;11.73;100.00;98698.88;6269032;22;20475;-57
2022/05/01 03:30:52;;;;;;;5.68;4.85;;;;;;;11.90;100.00;98706.31;6267493;22;20191;-56
2022/05/01 03:33:21;;;;;;;5.30;4.80;;;;;;;11.86;100.00;98710.88;6269286;22;20155;-57
2022/05/01 03:35:47;;;;;;;6.90;5.00;;;;;;;11.63;100.00;98701.25;6269840;22;20148;-57
2022/05/01 03:38:12;;;;;;;5.85;5.03;;;;;;;11.73;100.00;98704.06;6266032;22;20159;-56
2022/05/01 03:40:38;;;;;;;4.78;4.38;;;;;;;11.64;100.00;98700.31;6255139;22;20148;-57
2022/05/01 03:43:04;;;;;;;5.63;5.03;;;;;;;11.71;100.00;98703.31;6257609;22;20175;-56
2022/05/01 03:45:30;;;;;;;8.52;4.45;;;;;;;11.73;100.00;98704.88;6266754;22;20180;-57
2022/05/01 03:47:56;;;;;;;4.90;4.40;;;;;;;11.82;100.00;98704.25;6269176;22;20149;-57
2022/05/01 03:50:21;;;;;;;5.53;4.53;;;;;;;11.90;100.00;98708.91;6269226;22;20148;-57
2022/05/01 03:52:47;;;;;;;5.82;5.30;;;;;;;11.94;100.00;98703.41;6268921;22;20157;-57
2022/05/01 03:55:12;;;;;;;5.95;5.43;;;;;;;11.97;100.00;98705.75;6269421;22;20642;-57
2022/05/01 03:57:39;;;;;;;5.65;5.15;;;;;;;11.96;100.00;98711.88;6268985;22;20148;-57
2022/05/01 04:00:06;;;;;;;5.20;4.70;;;;;;;12.10;100.00;98713.53;6261276;22;20650;-56
2022/05/01 04:02:40;;;;;;;8.63;5.88;;;;;;;12.26;100.00;98716.72;6256356;22;20243;-56
2022/05/01 04:05:06;;;;;;;6.38;5.75;;;;;;;12.32;100.00;98717.09;6258642;22;20234;-56
2022/05/01 04:07:31;;;;;;;7.75;6.13;;;;;;;12.36;100.00;98713.34;6269145;22;20205;-56
2022/05/01 04:09:59;;;;;;;5.45;4.95;;;;;;;12.27;100.00;98713.19;6270494;22;20527;-57
2022/05/01 04:12:24;;;;;;;5.30;4.60;;;;;;;12.21;100.00;98711.84;6270732;22;20148;-57
2022/05/01 04:14:50;;;;;;;4.72;4.32;;;;;;;12.16;100.00;98708.75;6270607;22;20148;-57
2022/05/01 04:17:15;;;;;;;5.15;4.25;;;;;;;12.12;100.00;98707.31;6270965;22;20172;-56
2022/05/01 04:19:41;;;;;;;4.80;4.45;;;;;;;12.08;100.00;98708.44;6270784;22;20148;-56
2022/05/01 04:22:07;;;;;;;5.57;4.28;;;;;;;12.00;100.00;98707.31;6256294;22;20163;-57
2022/05/01 04:24:32;;;;;;;4.63;4.22;;;;;;;11.98;100.00;98706.59;6258762;22;20588;-56
2022/05/01 04:26:58;;;;;;;4.80;4.40;;;;;;;12.17;100.00;98704.38;6265976;22;20613;-57
2022/05/01 04:29:39;;;;;;;4.80;3.92;;;;;;;12.22;100.00;98702.28;6270919;22;20704;-57
2022/05/01 04:32:06;;;;;;;4.78;4.38;;;;;;;12.34;99.78;98704.00;6270806;22;20129;-56
2022/05/01 04:34:32;;;;;;;4.47;4.07;;;;;;;12.31;99.92;98701.66;6270075;22;20689;-57
2022/05/01 04:36:59;;;;;;;5.22;4.72;;;;;;;12.19;100.00;98705.13;6270317;22;20148;-56
2022/05/01 04:39:25;;;;;;;5.75;4.80;;;;;;;12.38;100.00;98714.06;6270557;22;20179;-57
2022/05/01 04:41:50;;;;;;;5.90;5.35;;;;;;;12.59;100.00;98722.09;6263587;22;20186;-57
2022/05/01 04:44:16;;;;;;;7.38;5.72;;;;;;;12.79;100.00;98721.50;6257089;22;20176;-57
2022/05/01 04:46:41;;;;;;;7.20;5.32;;;;;;;13.03;100.00;98719.75;6258303;22;20551;-57
2022/05/01 04:49:06;;;;;;;6.82;6.15;;;;;;;13.25;100.00;98717.22;6270771;22;20152;-57
2022/05/01 04:51:32;;;;;;;4.82;4.53;;;;;;;13.32;96.30;98723.59;6270602;22;20198;-57
2022/05/01 04:53:57;;;;;;;5.03;4.32;;;;;;;13.44;94.88;98723.53;6268440;22;20155;-57
2022/05/01 04:59:08;;;;;;;4.13;3.83;;;;;;;13.48;92.37;98724.13;6270290;22;20607;-57
2022/05/01 05:01:36;;;;;;;4.75;3.92;;;;;;;13.67;92.17;98734.78;6270853;22;20180;-57
2022/05/01 05:04:03;;;;;;;4.53;4.05;;;;;;;13.87;90.22;98728.88;6257458;22;20184;-57
2022/05/01 05:06:29;;;;;;;4.55;3.95;;;;;;;14.08;88.02;98725.47;6258141;22;20202;-57
2022/05/01 05:11:38;;;;;;;3.58;3.28;;;;;;;14.22;85.96;98729.63;6270464;22;20147;-57
2022/05/01 05:14:05;;;;;;;4.95;4.55;;;;;;;14.09;86.97;98732.34;6270572;22;20145;-57
2022/05/01 05:16:31;;;;;;;6.35;4.80;;;;;;;14.25;87.43;98732.00;6268756;22;20728;-57
2022/05/01 05:18:56;;;;;;;5.75;4.20;;;;;;;14.45;86.14;98726.03;6270105;22;20152;-57
2022/05/01 05:21:21;;;;;;;5.53;5.00;;;;;;;14.58;85.85;98730.16;6269981;22;20202;-57
2022/05/01 05:23:47;;;;;;;6.88;4.75;;;;;;;14.60;85.50;98728.28;6264130;22;20846;-57
2022/05/01 05:26:12;;;;;;;4.93;4.50;;;;;;;14.54;86.88;98733.13;6256966;22;20486;-57
2022/05/01 05:28:38;;;;;;;6.45;5.13;;;;;;;14.69;87.52;98724.13;6259508;22;20144;-57
2022/05/01 05:31:04;;;;;;;6.68;5.97;;;;;;;14.75;87.68;98736.66;6269656;22;20235;-57
2022/05/01 05:33:29;;;;;;;9.07;6.32;;;;;;;14.77;88.80;98732.13;6270218;22;20547;-57
2022/05/01 05:35:55;;;;;;;9.27;6.97;;;;;;;14.87;89.61;98740.88;6270145;22;20148;-57
2022/05/01 05:38:20;;;;;;;8.63;7.60;;;;;;;15.04;89.59;98737.72;6270235;22;20259;-57
2022/05/01 05:40:46;;;;;;;9.32;7.40;;;;;;;15.24;87.68;98740.34;6270157;22;20148;-57
2022/05/01 05:43:12;;;;;;;10.50;7.35;;;;;;;15.40;86.96;98740.75;6270208;22;20144;-57
2022/05/01 05:45:37;;;;;;;7.25;6.55;;;;;;;15.56;85.82;98745.56;6259517;22;20621;-57
2022/05/01 05:48:03;;;;;;;10.60;6.88;;;;;;;15.69;84.48;98747.00;6257824;22;20159;-57
2022/05/01 05:50:29;;;;;;;10.88;6.57;;;;;;;15.80;83.06;98748.72;6262595;22;20155;-57
2022/05/01 05:52:55;;;;;;;13.07;7.57;;;;;;;15.92;81.73;98758.94;6268250;22;20618;-57
2022/05/01 05:55:20;;;;;;;11.55;7.32;;;;;;;16.00;80.92;98760.91;6270010;22;20150;-57
2022/05/01 05:57:46;;;;;;;8.77;7.05;;;;;;;16.09;80.21;98762.75;6269880;22;20149;-57
2022/05/01 06:00:12;;;;;;;9.90;6.15;;;;;;;16.03;80.45;98765.88;6269550;22;20148;-57
2022/05/01 06:02:37;;;;;;;7.32;6.38;;;;;;;16.02;80.80;98764.19;6270040;22;20164;-57
2022/05/01 06:05:03;;;;;;;9.30;6.10;;;;;;;16.14;80.04;98768.38;6269663;22;20309;-56
2022/05/01 06:07:29;;;;;;;11.30;5.80;;;;;;;16.15;79.89;98775.28;6255409;22;20612;-56
2022/05/01 06:09:54;;;;;;;8.55;6.35;;;;;;;16.22;80.56;98765.94;6257719;22;20657;-56
2022/05/01 06:12:20;;;;;;;8.73;6.03;;;;;;;16.29;80.28;98769.69;6265232;22;20155;-57
2022/05/01 06:14:45;;;;;;;7.57;6.00;;;;;;;16.38;80.15;98769.75;6269717;22;20144;-56
2022/05/01 06:17:12;;;;;;;9.38;7.38;;;;;;;16.51;80.51;98767.72;6269683;22;20172;-56
2022/05/01 06:19:39;;;;;;;13.93;7.85;;;;;;;16.57;79.91;98766.38;6269519;22;20175;-56
2022/05/01 06:22:04;;;;;;;11.02;8.05;;;;;;;16.53;80.08;98765.81;6269597;22;20155;-56
2022/05/01 06:24:30;;;;;;;11.73;7.25;;;;;;;16.57;79.82;98767.19;6269636;22;20447;-57
2022/05/01 06:26:55;;;;;;;8.20;6.45;;;;;;;16.65;78.83;98771.75;6264217;22;20152;-56
2022/05/01 06:29:20;;;;;;;7.13;5.93;;;;;;;16.64;78.11;98759.66;6256049;22;20159;-57
2022/05/01 06:31:46;;;;;;;7.75;6.25;;;;;;;16.77;77.41;98776.75;6258499;22;20152;-56
2022/05/01 06:34:12;;;;;;;6.55;5.95;;;;;;;16.87;76.96;98774.97;6268446;22;20151;-56
2022/05/01 06:36:38;;;;;;;5.93;5.22;;;;;;;16.89;76.25;98780.03;6269550;22;20187;-56
2022/05/01 06:39:04;;;;;;;6.10;5.57;;;;;;;16.94;76.00;98786.53;6269341;22;20151;-57
2022/05/01 06:41:29;;;;;;;5.28;4.85;;;;;;;16.96;75.21;98783.78;6269622;22;20148;-56
2022/05/01 06:43:55;;;;;;;6.18;5.55;;;;;;;16.98;74.68;98782.69;6269556;22;20630;-56
2022/05/01 06:46:20;;;;;;;6.28;5.00;;;;;;;17.04;74.52;98786.53;6269441;22;20981;-56
2022/05/01 06:48:45;;;;;;;5.32;4.93;;;;;;;17.09;74.49;98785.16;6257355;22;20186;-57
2022/05/01 06:51:11;;;;;;;5.60;4.93;;;;;;;17.20;73.23;98786.84;6257172;22;20582;-57
2022/05/01 06:53:37;;;;;;;6.72;5.10;;;;;;;17.26;73.24;98786.28;6261629;22;20152;-56
2022/05/01 06:56:02;;;;;;;8.13;5.05;;;;;;;17.35;72.14;98780.22;6269707;22;20148;-56
2022/05/01 06:58:28;;;;;;;7.32;4.85;;;;;;;17.44;71.69;98784.66;6269426;22;20213;-56
2022/05/01 07:00:54;;;;;;;7.28;5.10;;;;;;;17.54;71.30;98791.53;6269552;22;20145;-57
2022/05/01 07:03:20;;;;;;;5.82;5.30;;;;;;;17.65;70.62;98793.16;6269532;22;20198;-57
2022/05/01 07:05:46;;;;;;;5.65;5.07;;;;;;;17.73;69.88;98795.94;6269265;22;20260;-56
2022/05/01 07:08:12;;;;;;;5.25;4.80;;;;;;;17.73;70.44;98794.13;6269012;22;20223;-56
2022/05/01 07:10:38;;;;;;;6.90;4.85;;;;;;;17.72;69.81;98794.28;6255088;22;20163;-56
2022/05/01 07:13:03;;;;;;;7.47;5.20;;;;;;;17.71;69.91;98790.00;6255600;22;20151;-56
2022/05/01 07:15:28;;;;;;;7.28;5.38;;;;;;;17.58;70.56;98792.91;6264717;22;20163;-56
2022/05/01 07:17:54;;;;;;;6.45;5.22;;;;;;;17.67;70.43;98792.06;6269319;22;20154;-56
2022/05/01 07:20:19;;;;;;;6.07;5.30;;;;;;;17.74;70.21;98794.97;6269589;22;20148;-56
2022/05/01 07:22:45;;;;;;;7.63;5.18;;;;;;;17.85;68.05;98802.66;6269353;22;20598;-57
2022/05/01 07:25:11;;;;;;;7.07;5.13;;;;;;;17.90;68.60;98800.47;6269102;22;20196;-56
2022/05/01 07:27:37;;;;;;;5.75;5.13;;;;;;;17.83;68.98;98794.94;6269078;22;20170;-57
2022/05/01 07:30:03;;;;;;;5.60;5.13;;;;;;;17.90;68.47;98793.41;6262253;22;20159;-57
2022/05/01 07:32:28;;;;;;;6.97;5.60;;;;;;;17.95;67.97;98795.63;6255867;22;20151;-56
2022/05/01 07:34:55;;;;;;;8.98;5.80;;;;;;;17.92;68.41;98788.03;6258147;22;20154;-56
2022/05/01 07:37:22;;;;;;;8.40;5.63;;;;;;;17.95;68.39;98785.16;6267677;22;20155;-56
2022/05/01 07:39:47;;;;;;;7.07;5.68;;;;;;;18.15;68.26;98799.81;6269259;22;20642;-57
2022/05/01 07:42:12;;;;;;;5.43;4.22;;;;;;;18.20;64.08;98798.41;6269230;22;20148;-57
2022/05/01 07:44:38;;;;;;;5.28;4.78;;;;;;;18.23;64.62;98802.56;6270167;22;20192;-57
2022/05/01 07:47:04;;;;;;;6.20;5.60;;;;;;;18.33;66.26;98806.00;6270914;22;20152;-57
2022/05/01 07:49:29;;;;;;;7.68;5.88;;;;;;;18.36;66.90;98805.72;6271846;22;20152;-57
2022/05/01 07:51:54;;;;;;;5.60;4.50;;;;;;;18.49;65.01;98808.84;6261276;22;20159;-57
2022/05/01 07:54:20;;;;;;;6.53;4.68;;;;;;;18.57;64.37;98799.28;6258570;22;20182;-56
2022/05/01 07:56:45;;;;;;;5.00;4.55;;;;;;;18.65;63.61;98791.50;6262498;22;20225;-57
2022/05/01 07:59:11;;;;;;;7.57;4.47;;;;;;;18.75;62.64;98789.66;6270876;22;20143;-57
2022/05/01 08:01:38;;;;;;;5.10;4.70;;;;;;;18.81;60.33;98796.09;6271599;22;20162;-57
2022/05/01 08:06:50;;;;;;;6.00;3.92;;;;;;;18.91;58.46;98789.00;6270945;22;20182;-57
2022/05/01 08:09:17;;;;;;;6.05;4.28;;;;;;;18.92;58.58;98793.28;6270982;22;20151;-56
2022/05/01 08:11:44;;;;;;;5.25;3.90;;;;;;;18.99;57.00;98799.56;6269338;22;20144;-57
2022/05/01 08:14:12;;;;;;;4.35;2.92;;;;;;;18.49;55.90;98795.72;6256646;22;20247;-57
2022/05/01 08:16:38;;;;;;;4.05;3.30;;;;;;;18.21;57.20;98794.03;6258549;22;20261;-57
2022/05/01 08:22:07;;;;;;;4.57;3.90;;;;;;;18.14;58.42;98791.13;6237081;23;20160;-57
2022/05/01 08:24:33;;;;;;;3.75;3.45;;;;;;;17.82;57.82;98789.84;6237289;23;20251;-57
2022/05/01 08:27:05;;;;;;;5.28;4.03;;;;;;;17.88;58.36;98784.88;6235802;22;20156;-56
2022/05/01 08:29:32;;;;;;;3.78;3.45;;;;;;;17.73;59.15;98781.03;6270759;22;20207;-57
2022/05/01 08:31:59;;;;;;;5.28;4.32;;;;;;;17.33;59.26;98771.69;6270796;22;20152;-57
2022/05/01 08:34:25;;;;;;;5.22;3.45;;;;;;;17.58;59.51;98771.16;6257158;22;20657;-56
2022/05/01 08:36:50;;;;;;;7.72;4.43;;;;;;;17.89;59.90;98767.38;6258137;22;20159;-57
2022/05/01 08:39:16;;;;;;;4.68;4.13;;;;;;;18.10;59.77;98768.00;6264396;22;20152;-57
2022/05/01 08:41:42;;;;;;;5.65;3.72;;;;;;;18.10;55.11;98768.00;6270738;22;20155;-57
2022/05/01 08:44:13;;;;;;;3.13;2.92;;;;;;;17.77;53.15;98766.72;6268519;22;20195;-57
2022/05/01 08:46:57;;;;;;;4.25;2.88;;;;;;;17.91;53.35;98765.44;6271089;22;20905;-56
2022/05/01 08:49:24;;;;;;;4.00;3.22;;;;;;;17.94;52.98;98765.97;6270843;22;20137;-57
2022/05/01 08:51:52;;;;;;;3.42;2.78;;;;;;;17.72;50.93;98762.88;6270205;22;20151;-57
2022/05/01 08:54:17;;;;;;;2.70;2.50;;;;;;;17.81;51.18;98760.25;6265804;22;20576;-56
2022/05/01 08:56:44;;;;;;;2.50;2.30;;;;;;;17.98;51.33;98756.03;6256628;22;20158;-57
2022/05/01 08:59:11;;;;;;;2.80;2.38;;;;;;;18.17;49.07;98755.97;6259578;22;20205;-57
2022/05/01 09:01:38;;;;;;;4.07;2.78;;;;;;;18.20;48.18;98759.13;6269871;22;20158;-57
2022/05/01 09:04:08;;;;;;;4.13;3.03;;;;;;;18.36;48.41;98756.75;6270522;22;20587;-57
2022/05/01 09:06:38;;;;;;;7.10;3.63;;;;;;;18.44;48.70;98762.13;6270466;22;20152;-57
2022/05/01 09:09:11;;;;;;;2.33;2.13;;;;;;;18.23;47.02;98748.38;6270231;22;20132;-57
2022/05/01 09:14:24;;;;;;;2.67;2.47;;;;;;;18.50;47.28;98737.09;6270110;22;20155;-57
2022/05/01 09:17:08;;;;;;;3.72;2.10;;;;;;;18.73;48.18;98733.94;6256897;22;20606;-57
2022/05/01 09:19:34;;;;;;;3.28;2.63;;;;;;;18.79;46.99;98740.38;6258395;22;20136;-57
2022/05/01 09:22:00;;;;;;;2.80;2.60;;;;;;;18.76;45.66;98741.50;6266430;22;20143;-57
2022/05/01 09:24:27;;;;;;;2.45;2.25;;;;;;;18.75;46.66;98739.84;6268465;22;20357;-57
2022/05/01 09:26:53;;;;;;;5.63;2.53;;;;;;;18.85;48.06;98735.38;6270608;22;20175;-57
2022/05/01 09:29:23;;;;;;;2.83;2.63;;;;;;;19.00;47.80;98727.81;6270238;22;20174;-57
2022/05/01 09:31:50;;;;;;;2.83;2.63;;;;;;;19.15;46.71;98731.53;6270173;22;20487;-57
2022/05/01 09:34:30;;;;;;;2.95;2.65;;;;;;;19.10;48.32;98723.28;6270012;22;20528;-57
2022/05/01 09:36:57;;;;;;;4.15;2.50;;;;;;;19.18;49.39;98726.00;6261873;22;20222;-57
2022/05/01 09:39:25;;;;;;;3.10;2.85;;;;;;;19.01;47.93;98713.72;6257288;22;20170;-57
2022/05/01 09:41:52;;;;;;;3.22;2.40;;;;;;;19.02;47.86;98710.97;6260668;22;20625;-56
2022/05/01 09:44:22;;;;;;;4.88;2.50;;;;;;;19.21;48.21;98709.97;6268222;22;20194;-57
2022/05/01 09:46:49;;;;;;;2.08;1.95;;;;;;;19.28;45.52;98709.22;6269995;22;20685;-57
2022/05/01 09:49:17;;;;;;;3.00;2.28;;;;;;;19.33;45.31;98714.84;6268412;22;20553;-57
2022/05/01 09:51:56;;;;;;;2.88;2.28;;;;;;;19.16;45.55;98704.31;6270120;22;20498;-57
2022/05/01 09:54:26;;;;;;;2.10;2.00;;;;;;;19.50;44.84;98700.88;6270257;22;20227;-57
2022/05/01 09:57:00;;;;;;;2.42;2.22;;;;;;;19.65;44.25;98693.25;6269027;22;20219;-57
2022/05/01 09:59:28;;;;;;;4.70;1.92;;;;;;;19.65;44.92;98694.06;6255725;22;20152;-57
2022/05/01 10:02:00;;;;;;;3.70;2.08;;;;;;;19.71;44.50;98688.19;6256451;22;20213;-57
2022/05/01 10:04:25;;;;;;;2.47;2.20;;;;;;;19.44;45.17;98690.16;6267184;22;20186;-57
2022/05/01 10:06:55;;;;;;;2.90;2.25;;;;;;;19.04;44.91;98689.81;6270026;22;20151;-56
2022/05/01 10:09:24;;;;;;;2.30;2.10;;;;;;;18.98;45.54;98679.91;6269879;22;20193;-57
2022/05/01 10:11:54;;;;;;;2.85;2.10;;;;;;;18.98;45.59;98685.16;6269830;22;20156;-57
2022/05/01 10:14:22;;;;;;;2.33;1.75;;;;;;;19.31;42.86;98684.50;6270043;22;20139;-57
2022/05/01 10:16:49;;;;;;;2.40;1.95;;;;;;;19.53;42.88;98684.00;6269608;22;20263;-57
2022/05/01 10:19:18;;;;;;;2.78;1.90;;;;;;;19.75;41.28;98680.84;6259904;22;20594;-57
2022/05/01 10:21:52;;;;;;;2.17;2.00;;;;;;;19.68;41.39;98674.56;6257465;22;20147;-56
2022/05/01 10:24:20;;;;;;;1.80;1.70;;;;;;;19.87;42.07;98666.47;6262952;22;20179;-57
2022/05/01 10:27:07;;;;;;;1.92;1.83;;;;;;;20.21;42.39;98659.41;6268010;22;20183;-57
2022/05/01 10:29:37;;;;;;;2.10;1.88;;;;;;;20.29;42.85;98659.44;6269550;22;20147;-56
2022/05/01 10:32:23;;;;;;;4.43;2.25;;;;;;;20.20;42.26;98665.66;6269618;22;20148;-57
2022/05/01 10:35:13;;;;;;;3.97;1.80;;;;;;;20.34;40.21;98665.06;6269747;22;20135;-57
2022/05/01 10:37:57;;;;;;;2.80;1.73;;;;;;;20.47;39.70;98665.41;6269510;22;20238;-57
2022/05/01 10:40:23;;;;;;;1.70;1.60;;;;;;;20.32;38.36;98657.31;6259085;22;20147;-57
2022/05/01 10:42:49;;;;;;;5.18;2.13;;;;;;;20.58;38.94;98655.41;6256432;22;20143;-57
2022/05/01 10:45:21;;;;;;;1.95;1.80;;;;;;;20.89;38.65;98645.97;6262265;22;20629;-57
2022/05/01 10:47:48;;;;;;;3.90;1.73;;;;;;;21.03;36.62;98649.75;6269488;22;20148;-57
2022/05/01 10:50:24;;;;;;;1.77;1.67;;;;;;;21.29;36.25;98655.66;6269340;22;20540;-57
2022/05/01 10:53:05;;;;;;;1.40;1.30;;;;;;;21.23;35.06;98648.41;6269621;22;20135;-57
2022/05/01 10:55:49;;;;;;;1.63;1.52;;;;;;;21.38;36.25;98637.03;6269557;22;20155;-57
2022/05/01 10:58:17;;;;;;;4.43;1.80;;;;;;;21.64;36.26;98636.81;6269465;22;20144;-57
2022/05/01 11:00:47;;;;;;;1.77;1.65;;;;;;;21.67;35.47;98644.41;6262974;22;20558;-57
2022/05/01 11:03:22;;;;;;;1.27;1.17;;;;;;;21.54;35.28;98641.44;6256097;22;20587;-57
2022/05/01 11:05:52;;;;;;;1.65;1.55;;;;;;;21.70;35.00;98641.44;6259311;22;20583;-57
2022/05/01 11:08:27;;;;;;;1.50;1.40;;;;;;;21.62;33.37;98638.81;6269267;22;20155;-57
2022/05/01 11:10:57;;;;;;;1.35;1.20;;;;;;;21.65;31.02;98643.72;6269688;22;20483;-57
2022/05/01 11:13:34;;;;;;;1.35;1.00;;;;;;;21.62;30.53;98634.34;6269405;22;20566;-57
2022/05/01 11:16:00;;;;;;;1.30;1.20;;;;;;;21.92;30.04;98619.66;6269242;22;20187;-57
2022/05/01 11:18:33;;;;;;;1.38;1.27;;;;;;;22.20;31.02;98626.13;6268988;22;20632;-57
2022/05/01 11:21:24;;;;;;;1.27;1.17;;;;;;;22.43;30.95;98619.06;6268059;22;20143;-57
2022/05/01 11:24:04;;;;;;;1.73;1.20;;;;;;;22.23;32.38;98623.13;6255879;22;20155;-57
2022/05/01 11:26:30;;;;;;;2.28;1.45;;;;;;;22.13;32.01;98604.03;6258300;22;20156;-57
2022/05/01 11:29:08;;;;;;;1.77;1.25;;;;;;;22.13;31.03;98622.50;6267895;22;20201;-57
2022/05/01 11:31:37;;;;;;;1.95;1.45;;;;;;;21.85;34.96;98610.78;6269367;22;20574;-57
2022/05/01 11:34:22;;;;;;;4.78;1.80;;;;;;;21.97;34.83;98612.84;6269545;22;20155;-57
2022/05/01 11:37:09;;;;;;;4.55;1.50;;;;;;;21.93;34.49;98605.47;6269394;22;20159;-57
2022/05/01 11:39:47;;;;;;;1.67;1.58;;;;;;;22.34;33.13;98613.00;6267524;22;20148;-57
2022/05/01 11:42:38;;;;;;;4.53;1.50;;;;;;;22.35;31.47;98611.19;6266917;22;20159;-57
2022/05/01 11:45:05;;;;;;;1.17;1.17;;;;;;;22.18;30.57;98604.34;6251990;22;20206;-57
2022/05/01 11:47:33;;;;;;;2.50;1.63;;;;;;;22.21;29.88;98610.09;6258476;22;20156;-57
2022/05/01 11:49:58;;;;;;;2.70;1.48;;;;;;;22.11;30.74;98603.41;6268657;22;20160;-57
2022/05/01 11:52:24;;;;;;;2.95;1.40;;;;;;;22.40;31.54;98603.56;6268944;22;20152;-57
2022/05/01 11:54:55;;;;;;;1.30;1.20;;;;;;;22.12;30.41;98595.34;6269647;22;20144;-57
2022/05/01 12:03:04;;;;;;;1.55;1.45;;;;;;;22.77;31.82;98593.13;6268169;22;20593;-58
2022/05/01 12:05:43;;;;;;;2.58;1.40;;;;;;;22.74;32.05;98590.84;6254923;22;20180;-57
2022/05/01 12:08:09;;;;;;;1.20;1.20;;;;;;;22.95;30.74;98583.09;6257492;22;20680;-57